NCAR-RAP Real-Time Weather Data

Output produced by METARs form (23 January 2018  15:41 UTC)
found at http://weather.rap.ucar.edu/surface/
 
RJOR 231200Z 25016KT 7000 -SHSN FEW010 SCT015 BKN020 M00/M08 Q1015
RJOR 231100Z 24016G27KT 9999 -SHSN FEW010 SCT015 BKN020 M00/M08 Q1015
RJOR 231000Z 24016KT 9999 -SHSN FEW008 SCT010 BKN020 M00/M07 Q1015
RJOR 230935Z 24015KT 4000 -SHSN FEW008 SCT015 BKN020 M01/M05 Q1015 RMK 1CU008 3CU015 5CU020 A2999
RJOR 230921Z 24018KT 4000 -SHSNGS FEW010 SCT015 BKN020 M01/M05 Q1015 RMK 1CU010 4CU015 5CU020 A2998 SNOW PELLETS
RJOR 230916Z 24020KT 4000 -SHSN FEW010 SCT015 BKN020 M01/M06 Q1015 RMK 1CU010 4CU015 5CU020 A2998
RJOR 230900Z 23012G22KT 9999 -SHSN FEW010 SCT015 BKN020 00/M07 Q1014
RJOR 230800Z 24021G34KT 9999 -SHSN FEW010 BKN015 01/M07 Q1014
RJOR 230700Z 27029KT 9999 -SHSN FEW015 SCT025 BKN030 01/M04 Q1014
RJOR 230600Z 28033G43KT 9999 -SHSN FEW020 BKN035 03/M05 Q1013
RJOR 230500Z 27032KT 9999 VCSH FEW020 SCT035 BKN/// 04/M08 Q1013
RJOR 230400Z 27037G49KT 9999 FEW025 SCT035 BKN/// 06/M05 Q1012
RJOR 230300Z 27036KT 9999 FEW025 SCT035 BKN045 06/M03 Q1012
RJOR 230200Z 26035KT 230V290 9999 FEW025 SCT035 BKN070 07/M01 Q1011
RJOR 230100Z 25022G33KT 9999 FEW025 07/M05 Q1011
RJOR 230000Z 25021KT 9999 FEW025 07/M03 Q1010
RJOR 222300Z 23015KT 9999 FEW015 FEW020CB SCT045 06/M00 Q1010
RJOR 222200Z 24019KT 9999 -SHRA FEW015 FEW020CB SCT025 BKN040 06/01 Q1009
RJOR 222130Z 25018KT 210V280 9999 -TSRA FEW015 FEW020CB SCT025 BKN040 06/01 Q1009
RJOR 222118Z 23011KT 9999 TS FEW015 FEW020CB SCT025 BKN040 06/01 Q1009 RMK 1CU015 1CB020 3CU025 5CU040 A2979 FBL TS 20KM NE MOV E
RJOR 222110Z 23012KT 9999 FEW015 SCT025 BKN040 06/01 Q1008 RMK 1CU015 3CU025 5CU040 A2979
RJOR 221200Z 15007KT 9999 FEW010 SCT020 BKN040 02/M00 Q1011
RJOR 221100Z 15007KT 9999 FEW005 SCT030 BKN050 02/M00 Q1011
RJOR 221000Z 15008KT 9999 FEW005 SCT020 BKN030 02/00 Q1012
RJOR 220900Z 16005KT 9999 FEW005 SCT015 BKN025 03/01 Q1012
RJOR 220800Z 15006KT 9999 FEW005 SCT015 03/01 Q1011
RJOR 220700Z 17004KT 8000 -RA FEW005 SCT020 BKN040 03/01 Q1012
RJOR 220600Z 17003KT 8000 -RA FEW005 SCT015 BKN030 03/01 Q1011
RJOR 220500Z 17004KT 9999 -RA FEW005 SCT015 BKN030 03/01 Q1011
RJOR 220400Z 16008KT 9000 -RA FEW008 SCT010 BKN020 03/00 Q1012
RJOR 220300Z 17004KT 9000 -RA FEW015 SCT020 BKN030 04/00 Q1013
RJOR 220200Z 19005KT 9999 -RA FEW015 SCT020 BKN030 05/01 Q1015
RJOR 220100Z 17005KT 9999 -RA FEW025 SCT035 BKN040 04/00 Q1016
RJOR 220000Z 10003KT 9999 FEW030 SCT040 BKN050 04/00 Q1016
RJOR 212300Z 20008KT 9999 FEW025 SCT060 OVC070 04/M00 Q1016
RJOR 212200Z 10003KT 9999 FEW050 SCT060 OVC070 03/M00 Q1016
RJOR 212130Z 11006KT 9999 FEW050 SCT060 OVC070 03/M01 Q1017
RJOR 212110Z 16006KT 9999 FEW050 OVC070 03/M01 Q1017 RMK 2SC050 8AS070 A3005
RJOR 211200Z 03013KT 9999 FEW020 SCT030 BKN050 05/01 Q1021
RJOR 211100Z 35009KT 9999 -SHRA FEW015 SCT020 BKN030 06/01 Q1021
RJOR 211000Z 32008KT 9999 FEW020 SCT035 BKN070 07/M03 Q1021
RJOR 210900Z 29011KT 9999 FEW020 SCT040 BKN/// 07/M01 Q1021
RJOR 210800Z 30017KT 9999 FEW020 SCT040 BKN050 08/M02 Q1020
RJOR 210700Z 29018KT 9999 FEW020 SCT040 08/M02 Q1020
RJOR 210600Z 29019KT 9999 FEW020 BKN045 09/M02 Q1020
RJOR 210500Z 30018KT 9999 FEW020 SCT045 09/00 Q1019
RJOR 210400Z 22008KT 8000 VCSH FEW020 SCT030 BKN045 07/03 Q1020